Time;durP1;ratioP1;P1;durP2;ratioP2;P2;SDS_P1;SDS_P2;PMS_P1;PMS_P2;Temp;Humidity;BMP_temperature;BMP_pressure;BME280_temperature;BME280_humidity;BME280_pressure;Samples;Min_cycle;Max_cycle;Signal;HPM_P1;HPM_P2
2022/09/14 00:06:27;;;;;;;13.60;8.23;;;;;;;14.95;74.15;99276.41;30735889;28;97394;-64
2022/09/14 00:21:28;;;;;;;16.10;8.20;;;;;;;14.74;74.54;99267.72;30734438;28;96744;-64
2022/09/14 00:36:30;;;;;;;17.02;9.65;;;;;;;14.62;75.48;99267.59;30732759;28;97520;-63
2022/09/14 00:51:32;;;;;;;13.37;7.93;;;;;;;14.81;76.05;99265.81;30732242;28;96578;-65
2022/09/14 01:07:03;;;;;;;11.23;7.40;;;;;;;15.18;75.74;99260.47;30730796;28;96802;-65
2022/09/14 01:22:13;;;;;;;9.70;6.60;;;;;;;15.15;75.22;99265.47;30730517;28;96750;-65
2022/09/14 01:37:34;;;;;;;8.20;6.53;;;;;;;15.29;75.88;99263.47;30735737;28;96881;-64
2022/09/14 01:52:48;;;;;;;9.10;6.60;;;;;;;15.40;75.14;99236.72;30748115;28;97529;-66
2022/09/14 02:07:48;;;;;;;10.63;7.47;;;;;;;15.46;75.54;99242.19;30746927;28;97563;-71
2022/09/14 02:22:50;;;;;;;8.57;7.18;;;;;;;15.64;75.17;99231.44;30745928;28;96743;-68
2022/09/14 02:38:07;;;;;;;13.93;8.43;;;;;;;15.66;75.39;99220.47;30743577;28;96609;-68
2022/09/14 02:53:18;;;;;;;12.80;8.80;;;;;;;15.65;75.62;99232.25;30741342;28;96802;-68
2022/09/14 03:08:20;;;;;;;10.77;7.60;;;;;;;15.68;75.62;99223.78;30740472;28;97450;-68
2022/09/14 03:23:20;;;;;;;15.07;8.20;;;;;;;15.64;75.75;99211.84;30738909;28;115060;-72
2022/09/14 03:38:20;;;;;;;11.15;8.40;;;;;;;15.52;75.62;99206.41;30737219;28;108679;-67
2022/09/14 03:53:21;;;;;;;13.15;9.20;;;;;;;15.23;75.93;99198.13;30735252;28;97193;-66
2022/09/14 04:08:22;;;;;;;12.05;8.43;;;;;;;15.03;76.14;99209.88;30687933;28;117951;-67
2022/09/14 04:23:22;;;;;;;22.73;11.17;;;;;;;14.95;76.71;99198.63;30611817;28;96650;-67
2022/09/14 04:38:23;;;;;;;17.00;10.70;;;;;;;14.71;77.37;99193.94;30607476;28;96908;-67
2022/09/14 04:53:23;;;;;;;13.30;9.45;;;;;;;14.76;77.47;99208.53;30601672;28;97249;-67
2022/09/14 05:08:23;;;;;;;17.73;9.52;;;;;;;14.86;77.76;99206.16;30607486;28;117957;-67
2022/09/14 05:23:24;;;;;;;17.15;10.00;;;;;;;14.93;77.43;99214.16;30623858;28;97515;-67
2022/09/14 05:38:27;;;;;;;12.38;9.13;;;;;;;15.09;77.86;99213.56;30638151;28;97267;-68
2022/09/14 05:53:28;;;;;;;15.50;9.00;;;;;;;15.37;78.40;99214.88;30725287;28;97701;-67
2022/09/14 06:08:28;;;;;;;14.30;9.73;;;;;;;15.81;77.69;99198.63;30738725;28;96827;-67
2022/09/14 06:23:29;;;;;;;12.85;8.68;;;;;;;16.20;77.49;99207.13;30637749;28;96917;-66
2022/09/14 06:38:30;;;;;;;12.20;8.63;;;;;;;16.77;76.63;99203.84;30712289;28;97104;-66
2022/09/14 06:53:30;;;;;;;13.35;8.15;;;;;;;17.46;75.05;99205.06;30663889;28;97127;-68
2022/09/14 07:08:34;;;;;;;12.95;9.13;;;;;;;17.60;74.21;99209.09;30687765;28;119731;-66
2022/09/14 07:23:37;;;;;;;13.30;7.80;;;;;;;18.01;73.55;99209.03;30655684;28;96869;-68
2022/09/14 07:38:38;;;;;;;10.00;6.63;;;;;;;18.61;72.27;99213.75;30668555;28;96980;-63
2022/09/14 07:53:41;;;;;;;11.40;8.32;;;;;;;19.15;70.43;99200.75;30735884;28;97107;-68
2022/09/14 08:08:46;;;;;;;10.13;7.27;;;;;;;19.78;69.35;99193.91;30735144;28;97025;-67
2022/09/14 08:23:46;;;;;;;15.77;6.93;;;;;;;20.44;67.61;99195.56;30732239;28;97100;-65
2022/09/14 08:38:47;;;;;;;13.88;7.35;;;;;;;20.37;65.81;99189.56;30730465;28;97438;-64
2022/09/14 08:53:51;;;;;;;12.50;6.88;;;;;;;20.17;64.79;99190.22;30729954;28;96807;-63
2022/09/14 09:08:59;;;;;;;11.43;7.00;;;;;;;20.07;64.44;99190.94;30730111;28;96640;-66
2022/09/14 09:24:19;;;;;;;11.03;6.77;;;;;;;20.40;64.14;99190.94;30692886;28;96822;-65
2022/09/14 09:39:19;;;;;;;10.57;6.50;;;;;;;21.09;61.96;99194.59;30654878;28;97540;-64
2022/09/14 09:54:29;;;;;;;10.63;6.47;;;;;;;22.13;60.46;99180.25;30645798;28;96832;-64
2022/09/14 10:09:30;;;;;;;10.03;5.77;;;;;;;22.56;58.33;99178.03;30720036;28;97561;-70
2022/09/14 10:24:33;;;;;;;9.65;5.82;;;;;;;22.29;57.17;99160.16;30743349;28;96972;-63
2022/09/14 10:39:49;;;;;;;9.07;5.60;;;;;;;22.48;56.80;99165.88;30741474;28;96806;-64
2022/09/14 10:54:56;;;;;;;8.47;5.20;;;;;;;22.74;56.48;99156.84;30741830;28;97057;-64
2022/09/14 11:10:34;;;;;;;12.57;6.17;;;;;;;22.62;54.87;99144.38;30732715;28;97368;-66
2022/09/14 11:25:48;;;;;;;14.90;5.63;;;;;;;23.03;54.38;99131.75;30702506;28;97129;-65
2022/09/14 11:41:15;;;;;;;6.97;4.67;;;;;;;22.30;55.00;99123.78;30611362;28;98152;-64
2022/09/14 11:56:31;;;;;;;9.70;5.83;;;;;;;21.95;55.16;99108.38;30725768;28;97601;-63
2022/09/14 12:11:34;;;;;;;11.00;5.30;;;;;;;22.18;55.21;99109.69;30723705;28;97091;-62
2022/09/14 12:26:35;;;;;;;12.93;7.47;;;;;;;21.85;55.71;99108.38;30719206;28;96788;-63
2022/09/14 12:41:35;;;;;;;12.75;6.28;;;;;;;22.07;56.04;99089.09;30714582;28;97353;-62
2022/09/14 12:56:35;;;;;;;9.40;7.00;;;;;;;21.76;56.52;99094.53;30611486;28;97058;-66
2022/09/14 13:11:40;;;;;;;8.23;7.00;;;;;;;21.10;57.32;99071.69;30692199;28;97244;-66
2022/09/14 13:26:42;;;;;;;8.20;6.93;;;;;;;21.08;58.22;99033.25;30595427;28;97163;-67
2022/09/14 13:41:43;;;;;;;9.10;7.20;;;;;;;20.84;58.93;99032.91;30611420;28;97008;-70
2022/09/14 13:56:43;;;;;;;;;;;;;;;20.60;59.80;99000.88;30615213;28;97253;-69
2022/09/14 14:11:53;;;;;;;11.05;7.28;;;;;;;20.71;60.25;98997.16;30633313;28;96743;-66
2022/09/14 14:26:56;;;;;;;13.27;7.10;;;;;;;20.65;60.17;98995.47;30642155;28;97184;-65
2022/09/14 14:41:57;;;;;;;12.33;7.80;;;;;;;20.27;61.17;98990.19;30623480;28;96854;-71
2022/09/14 14:56:58;;;;;;;9.43;6.80;;;;;;;20.03;62.12;98989.81;30622106;28;96774;-71
2022/09/14 15:11:58;;;;;;;10.15;6.85;;;;;;;19.66;62.88;98976.31;30619709;28;96784;-72
2022/09/14 15:26:58;;;;;;;9.60;6.22;;;;;;;19.48;63.64;98961.31;30616707;28;96701;-70
2022/09/14 15:41:59;;;;;;;9.80;6.13;;;;;;;19.12;64.28;98969.94;30613060;28;96751;-70
2022/09/14 15:56:59;;;;;;;7.25;6.10;;;;;;;18.79;65.70;98977.16;30612267;28;97229;-68
2022/09/14 16:12:00;;;;;;;9.95;7.80;;;;;;;18.42;67.27;98965.16;30612458;28;96681;-70
2022/09/14 16:27:00;;;;;;;12.02;6.95;;;;;;;18.18;69.00;98958.38;30609524;28;97963;-66
2022/09/14 16:42:01;;;;;;;7.38;5.47;;;;;;;17.89;70.51;98953.97;30598979;28;96747;-66
2022/09/14 16:57:01;;;;;;;8.13;6.78;;;;;;;17.54;71.83;98941.59;30599868;28;97346;-65
2022/09/14 17:12:02;;;;;;;9.65;6.82;;;;;;;17.48;73.29;98947.16;30614465;28;96738;-68
2022/09/14 17:27:02;;;;;;;9.38;6.75;;;;;;;17.62;74.40;98939.56;30618126;28;97311;-67
2022/09/14 17:42:03;;;;;;;11.38;6.90;;;;;;;17.47;75.03;98938.28;30615644;28;96747;-70
2022/09/14 17:57:03;;;;;;;9.02;6.82;;;;;;;17.38;75.75;98943.25;30617299;28;97480;-66
2022/09/14 18:12:04;;;;;;;10.52;6.70;;;;;;;17.30;76.48;98929.38;30616311;28;97103;-68
2022/09/14 18:27:04;;;;;;;10.05;6.88;;;;;;;17.15;77.10;98914.63;30650081;28;97411;-69
2022/09/14 18:42:05;;;;;;;12.00;7.35;;;;;;;17.16;77.75;98908.19;30743451;28;97309;-69
2022/09/14 18:57:05;;;;;;;16.83;9.68;;;;;;;17.02;78.08;98929.22;30742266;28;96636;-70
2022/09/14 19:12:06;;;;;;;11.80;8.25;;;;;;;16.92;78.78;98911.03;30740525;28;118069;-70
2022/09/14 19:27:06;;;;;;;12.82;8.80;;;;;;;16.88;79.20;98901.78;30719501;28;97806;-68
2022/09/14 19:42:06;;;;;;;12.35;9.25;;;;;;;16.88;79.95;98868.69;30737629;28;96935;-64
2022/09/14 19:57:07;;;;;;;13.82;10.50;;;;;;;16.78;80.03;98863.97;30737472;28;97237;-64
2022/09/14 20:12:07;;;;;;;12.30;9.20;;;;;;;16.78;80.58;98872.03;30625598;28;113238;-64
2022/09/14 20:27:07;;;;;;;13.63;10.68;;;;;;;16.74;80.86;98854.75;30612916;28;112337;-65
2022/09/14 20:42:08;;;;;;;14.52;10.70;;;;;;;16.67;81.08;98846.03;30609964;28;115919;-66
2022/09/14 20:57:08;;;;;;;14.25;10.45;;;;;;;16.58;81.35;98835.69;30675587;28;115473;-64
2022/09/14 21:12:11;;;;;;;16.13;11.15;;;;;;;16.55;81.99;98838.84;30727935;28;109991;-65
2022/09/14 21:27:11;;;;;;;14.43;11.47;;;;;;;16.53;82.40;98821.34;30727629;28;97613;-68
2022/09/14 21:42:11;;;;;;;13.60;10.10;;;;;;;16.58;82.41;98808.00;30727487;28;117548;-70
2022/09/14 21:57:11;;;;;;;14.25;10.50;;;;;;;16.50;82.58;98814.56;30739595;28;113647;-71
2022/09/14 22:12:13;;;;;;;11.23;8.35;;;;;;;16.49;82.91;98802.19;30746050;28;112487;-71
2022/09/14 22:27:13;;;;;;;10.20;7.43;;;;;;;16.48;83.29;98779.03;30745566;28;96772;-67
2022/09/14 22:42:14;;;;;;;12.30;7.40;;;;;;;16.54;83.32;98771.91;30743968;28;103152;-64
2022/09/14 22:57:14;;;;;;;10.10;7.47;;;;;;;16.61;83.78;98767.16;30743575;28;97516;-66
2022/09/14 23:12:14;;;;;;;11.77;8.48;;;;;;;16.70;83.83;98759.50;30740822;28;117895;-63
2022/09/14 23:27:15;;;;;;;12.20;9.45;;;;;;;16.77;83.79;98751.25;30740197;28;116571;-64
2022/09/14 23:42:15;;;;;;;16.38;11.45;;;;;;;16.69;83.45;98742.56;30737040;28;97953;-63
2022/09/14 23:57:15;;;;;;;16.25;11.68;;;;;;;16.58;83.40;98749.66;30736892;28;103792;-63
